createdAt,value
2019-04-30T00:00:45.271Z,6.77
2019-04-30T00:03:25.029Z,7.93
2019-04-30T00:05:57.324Z,5.43
2019-04-30T00:08:30.172Z,6.10
2019-04-30T00:10:57.409Z,6.90
2019-04-30T00:13:26.978Z,5.43
2019-04-30T00:15:58.723Z,7.83
2019-04-30T00:18:30.785Z,8.10
2019-04-30T00:21:00.207Z,6.93
2019-04-30T00:23:30.963Z,6.50
2019-04-30T00:26:08.188Z,5.13
2019-04-30T00:28:35.399Z,5.33
2019-04-30T00:31:05.497Z,5.83
2019-04-30T00:33:36.083Z,6.77
2019-04-30T00:36:06.100Z,5.67
2019-04-30T00:38:39.108Z,5.07
2019-04-30T00:41:11.519Z,6.40
2019-04-30T00:43:49.664Z,7.53
2019-04-30T00:46:17.291Z,5.53
2019-04-30T00:48:46.766Z,6.10
2019-04-30T00:51:21.416Z,5.73
2019-04-30T00:53:52.489Z,7.37
2019-04-30T00:56:24.746Z,7.03
2019-04-30T00:58:57.425Z,6.80
2019-04-30T01:01:50.788Z,6.73
2019-04-30T01:04:28.312Z,5.70
2019-04-30T01:07:04.572Z,5.77
2019-04-30T01:09:31.857Z,9.53
2019-04-30T01:12:01.356Z,6.73
2019-04-30T01:14:32.225Z,6.67
2019-04-30T01:17:03.882Z,6.23
2019-04-30T01:19:33.306Z,7.40
2019-04-30T01:22:02.984Z,7.70
2019-04-30T01:24:34.308Z,9.10
2019-04-30T01:27:06.685Z,5.50
2019-04-30T01:29:41.458Z,6.40
2019-04-30T01:32:10.452Z,6.47
2019-04-30T01:34:44.365Z,7.50
2019-04-30T01:37:11.579Z,8.17
2019-04-30T01:39:42.788Z,6.17
2019-04-30T01:42:14.842Z,7.43
2019-04-30T01:44:50.384Z,10.67
2019-04-30T01:47:16.439Z,8.33
2019-04-30T01:49:45.822Z,6.37
2019-04-30T01:52:16.776Z,8.13
2019-04-30T01:54:46.183Z,7.77
2019-04-30T01:57:39.042Z,7.17
2019-04-30T02:00:19.582Z,7.37
2019-04-30T02:02:49.643Z,8.40
2019-04-30T02:05:19.160Z,6.43
2019-04-30T02:07:48.779Z,10.00
2019-04-30T02:10:19.526Z,7.83
2019-04-30T02:12:50.917Z,10.67
2019-04-30T02:15:20.425Z,9.30
2019-04-30T02:17:50.521Z,8.07
2019-04-30T02:20:20.226Z,7.53
2019-04-30T02:22:50.799Z,7.47
2019-04-30T02:25:22.766Z,10.00
2019-04-30T02:27:53.539Z,7.17
2019-04-30T02:30:25.836Z,7.37
2019-04-30T02:33:00.632Z,8.87
2019-04-30T02:35:52.282Z,8.20
2019-04-30T02:38:30.268Z,7.33
2019-04-30T02:41:02.766Z,9.13
2019-04-30T02:43:33.888Z,7.93
2019-04-30T02:46:05.914Z,8.67
2019-04-30T02:48:39.872Z,8.47
2019-04-30T02:51:12.093Z,8.27
2019-04-30T02:54:29.682Z,9.00
2019-04-30T02:57:25.616Z,10.63
2019-04-30T03:00:05.940Z,11.03
2019-04-30T03:02:35.776Z,10.70
2019-04-30T03:05:10.213Z,10.13
2019-04-30T03:07:41.068Z,9.60
2019-04-30T03:10:13.135Z,9.67
2019-04-30T03:12:42.801Z,11.40
2019-04-30T03:15:12.514Z,10.98
2019-04-30T03:18:13.468Z,10.50
2019-04-30T03:20:54.379Z,12.47
2019-04-30T03:23:24.032Z,10.17
2019-04-30T03:25:54.612Z,10.20
2019-04-30T03:28:24.393Z,12.23
2019-04-30T03:30:57.536Z,13.20
2019-04-30T03:33:32.202Z,15.00
2019-04-30T03:36:02.849Z,12.03
2019-04-30T03:38:32.594Z,12.07
2019-04-30T03:41:03.296Z,12.43
2019-04-30T03:43:35.891Z,12.83
2019-04-30T03:46:10.096Z,13.63
2019-04-30T03:48:43.019Z,16.57
2019-04-30T03:51:15.671Z,14.73
2019-04-30T03:53:46.187Z,15.10
2019-04-30T03:56:20.008Z,17.00
2019-04-30T03:58:50.314Z,17.07
2019-04-30T04:01:29.479Z,19.30
2019-04-30T04:04:22.615Z,18.40
2019-04-30T04:07:20.515Z,19.13
2019-04-30T04:09:59.790Z,17.03
2019-04-30T04:12:31.336Z,19.10
2019-04-30T04:15:04.005Z,18.93
2019-04-30T04:17:33.041Z,18.33
2019-04-30T04:20:04.840Z,18.77
2019-04-30T04:22:35.422Z,19.60
2019-04-30T04:25:05.168Z,18.53
2019-04-30T04:27:34.962Z,18.50
2019-04-30T04:30:05.947Z,17.87
2019-04-30T04:32:35.464Z,17.93
2019-04-30T04:35:06.641Z,18.90
2019-04-30T04:37:39.476Z,18.27
2019-04-30T04:40:11.288Z,19.40
2019-04-30T04:42:40.843Z,18.00
2019-04-30T04:45:11.502Z,17.27
2019-04-30T04:47:41.026Z,18.13
2019-04-30T04:50:13.533Z,18.60
2019-04-30T04:52:43.019Z,17.60
2019-04-30T04:55:14.218Z,17.40
2019-04-30T04:57:43.843Z,19.23
2019-04-30T05:00:14.846Z,19.57
2019-04-30T05:03:09.438Z,18.23
2019-04-30T05:05:39.894Z,17.77
2019-04-30T05:08:10.987Z,17.00
2019-04-30T05:10:41.701Z,18.20
2019-04-30T05:13:13.651Z,17.17
2019-04-30T05:15:44.145Z,17.13
2019-04-30T05:18:14.576Z,19.50
2019-04-30T05:20:43.978Z,18.97
2019-04-30T05:23:15.241Z,17.80
2019-04-30T05:25:45.912Z,19.27
2019-04-30T05:28:15.566Z,19.07
2019-04-30T05:30:46.981Z,18.40
2019-04-30T05:33:18.515Z,19.63
2019-04-30T05:35:49.610Z,19.17
2019-04-30T05:38:21.045Z,19.13
2019-04-30T05:40:50.720Z,19.17
2019-04-30T05:43:20.322Z,19.40
2019-04-30T05:45:49.874Z,19.80
2019-04-30T05:48:19.583Z,20.47
2019-04-30T05:50:51.798Z,22.33
2019-04-30T05:53:21.084Z,20.80
2019-04-30T05:55:50.568Z,22.73
2019-04-30T05:58:20.026Z,20.70
2019-04-30T06:00:49.898Z,21.67
2019-04-30T06:03:28.100Z,22.67
2019-04-30T06:05:54.235Z,22.87
2019-04-30T06:08:26.813Z,23.00
2019-04-30T06:11:03.403Z,24.93
2019-04-30T06:13:58.900Z,24.73
2019-04-30T06:16:29.855Z,24.70
2019-04-30T06:18:59.657Z,24.17
2019-04-30T06:21:29.551Z,23.63
2019-04-30T06:23:59.377Z,26.00
2019-04-30T06:26:29.612Z,29.90
2019-04-30T06:28:59.366Z,25.60
2019-04-30T06:31:34.284Z,25.77
2019-04-30T06:34:02.620Z,28.10
2019-04-30T06:36:32.530Z,26.87
2019-04-30T06:39:02.253Z,24.63
2019-04-30T06:41:33.159Z,25.63
2019-04-30T06:44:05.173Z,26.53
2019-04-30T06:46:34.783Z,26.83
2019-04-30T06:49:05.413Z,26.77
2019-04-30T06:51:34.987Z,26.33
2019-04-30T06:54:05.572Z,25.27
2019-04-30T06:56:38.713Z,26.23
2019-04-30T06:59:09.303Z,25.87
2019-04-30T07:01:40.004Z,24.47
2019-04-30T07:04:10.563Z,25.80
2019-04-30T07:06:45.089Z,24.87
2019-04-30T07:09:51.487Z,24.80
2019-04-30T07:12:27.778Z,25.97
2019-04-30T07:14:59.073Z,23.87
2019-04-30T07:17:29.634Z,23.93
2019-04-30T07:19:59.671Z,25.80
2019-04-30T07:22:40.205Z,26.20
2019-04-30T07:25:05.061Z,23.80
2019-04-30T07:27:34.712Z,24.40
2019-04-30T07:30:04.344Z,23.40
2019-04-30T07:32:38.705Z,23.00
2019-04-30T07:35:09.765Z,22.90
2019-04-30T07:37:39.433Z,23.20
2019-04-30T07:40:09.645Z,21.43
2019-04-30T07:42:44.732Z,20.83
2019-04-30T07:45:10.550Z,19.03
2019-04-30T07:47:40.464Z,19.23
2019-04-30T07:50:12.266Z,18.13
2019-04-30T07:53:01.099Z,18.17
2019-04-30T07:55:19.437Z,18.03
2019-04-30T07:57:50.856Z,17.57
2019-04-30T08:00:20.532Z,15.60
2019-04-30T08:02:59.837Z,13.17
2019-04-30T08:05:40.148Z,13.63
2019-04-30T08:08:20.974Z,13.90
2019-04-30T08:10:41.820Z,13.30
2019-04-30T08:13:14.877Z,13.73
2019-04-30T08:15:44.374Z,13.40
2019-04-30T08:18:13.863Z,13.27
2019-04-30T08:20:43.472Z,13.80
2019-04-30T08:23:30.559Z,13.13
2019-04-30T08:25:46.177Z,12.47
2019-04-30T08:28:15.765Z,13.50
2019-04-30T08:30:48.879Z,12.07
2019-04-30T08:33:20.027Z,12.20
2019-04-30T08:35:50.463Z,12.55
2019-04-30T08:38:20.297Z,11.67
2019-04-30T08:40:56.209Z,12.07
2019-04-30T08:43:23.000Z,16.00
2019-04-30T08:45:52.511Z,11.38
2019-04-30T08:48:22.095Z,14.07
2019-04-30T08:50:53.541Z,11.38
2019-04-30T08:53:29.334Z,11.75
2019-04-30T08:55:55.854Z,11.40
2019-04-30T08:58:25.603Z,12.23
2019-04-30T09:00:58.761Z,11.93
2019-04-30T09:03:29.616Z,11.90
2019-04-30T09:06:09.340Z,14.68
2019-04-30T09:08:40.278Z,11.93
2019-04-30T09:11:21.845Z,12.30
2019-04-30T09:13:43.314Z,12.40
2019-04-30T09:16:13.949Z,12.73
2019-04-30T09:18:43.519Z,11.07
2019-04-30T09:21:13.112Z,11.70
2019-04-30T09:23:49.897Z,13.47
2019-04-30T09:26:16.261Z,12.90
2019-04-30T09:28:46.999Z,12.93
2019-04-30T09:31:16.796Z,12.40
2019-04-30T09:33:49.175Z,13.00
2019-04-30T09:36:20.860Z,12.87
2019-04-30T09:38:51.979Z,12.00
2019-04-30T09:41:21.577Z,13.20
2019-04-30T09:43:52.490Z,13.20
2019-04-30T09:46:26.696Z,11.83
2019-04-30T09:48:54.299Z,13.10
2019-04-30T09:51:26.444Z,13.27
2019-04-30T09:54:00.527Z,12.07
2019-04-30T09:56:30.850Z,12.50
2019-04-30T09:59:00.335Z,13.43
2019-04-30T10:01:32.515Z,14.07
2019-04-30T10:04:01.490Z,13.97
2019-04-30T10:06:39.788Z,14.90
2019-04-30T10:09:05.249Z,14.27
2019-04-30T10:11:50.090Z,14.03
2019-04-30T10:14:20.811Z,16.57
2019-04-30T10:17:09.522Z,16.00
2019-04-30T10:19:40.155Z,16.03
2019-04-30T10:22:09.574Z,15.77
2019-04-30T10:24:40.627Z,15.03
2019-04-30T10:27:13.072Z,16.10
2019-04-30T10:29:42.070Z,16.43
2019-04-30T10:32:12.935Z,15.77
2019-04-30T10:34:42.560Z,16.07
2019-04-30T10:37:12.009Z,15.83
2019-04-30T10:39:42.671Z,16.10
2019-04-30T10:42:12.331Z,14.43
2019-04-30T10:44:41.818Z,14.67
2019-04-30T10:47:11.666Z,15.03
2019-04-30T10:49:41.356Z,15.10
2019-04-30T10:52:12.704Z,15.30
2019-04-30T10:54:42.213Z,15.90
2019-04-30T10:57:11.893Z,16.43
2019-04-30T10:59:44.678Z,15.27
2019-04-30T11:02:14.209Z,16.50
2019-04-30T11:04:45.008Z,16.00
2019-04-30T11:07:14.959Z,15.47
2019-04-30T11:09:44.577Z,17.17
2019-04-30T11:12:14.354Z,14.17
2019-04-30T11:14:45.658Z,14.33
2019-04-30T11:17:15.441Z,15.07
2019-04-30T11:19:45.430Z,14.43
2019-04-30T11:22:15.104Z,14.77
2019-04-30T11:24:58.395Z,15.80
2019-04-30T11:27:22.934Z,16.33
2019-04-30T11:30:01.460Z,15.07
2019-04-30T11:32:27.210Z,16.27
2019-04-30T11:34:59.985Z,15.50
2019-04-30T11:37:29.623Z,14.23
2019-04-30T11:39:59.371Z,13.37
2019-04-30T11:42:28.925Z,15.13
2019-04-30T11:45:00.273Z,15.23
2019-04-30T11:47:33.834Z,14.50
2019-04-30T11:50:05.543Z,13.75
2019-04-30T11:53:25.377Z,14.70
2019-04-30T11:55:51.796Z,16.20
2019-04-30T11:58:25.616Z,15.90
2019-04-30T12:01:19.417Z,15.57
2019-04-30T12:03:59.809Z,17.27
2019-04-30T12:06:29.787Z,15.67
2019-04-30T12:09:13.410Z,17.37
2019-04-30T12:11:45.418Z,16.97
2019-04-30T12:14:16.082Z,17.30
2019-04-30T12:16:45.677Z,17.73
2019-04-30T12:19:15.221Z,18.30
2019-04-30T12:22:24.536Z,14.87
2019-04-30T12:25:02.548Z,18.10
2019-04-30T12:27:25.766Z,19.00
2019-04-30T12:29:59.431Z,18.87
2019-04-30T12:32:36.104Z,17.57
2019-04-30T12:35:05.985Z,18.57
2019-04-30T12:37:38.964Z,18.90
2019-04-30T12:40:25.558Z,19.40
2019-04-30T12:42:41.576Z,20.17
2019-04-30T12:45:13.045Z,19.10
2019-04-30T12:47:47.625Z,20.27
2019-04-30T12:50:30.417Z,19.17
2019-04-30T12:53:03.575Z,21.47
2019-04-30T12:55:52.979Z,21.90
2019-04-30T12:58:23.567Z,21.73
2019-04-30T13:00:54.160Z,21.90
2019-04-30T13:03:25.522Z,22.50
2019-04-30T13:05:56.767Z,20.97
2019-04-30T13:08:27.224Z,23.73
2019-04-30T13:10:57.684Z,22.27
2019-04-30T13:13:31.491Z,21.90
2019-04-30T13:16:00.036Z,24.80
2019-04-30T13:18:29.747Z,23.30
2019-04-30T13:21:03.180Z,24.23
2019-04-30T13:23:32.833Z,23.77
2019-04-30T13:26:02.454Z,23.63
2019-04-30T13:28:47.776Z,24.57
2019-04-30T13:31:19.364Z,25.17
2019-04-30T13:33:56.735Z,24.40
2019-04-30T13:36:26.686Z,22.50
2019-04-30T13:39:14.480Z,20.33
2019-04-30T13:41:51.236Z,25.00
2019-04-30T13:44:30.158Z,26.73
2019-04-30T13:46:59.593Z,23.70
2019-04-30T13:49:30.232Z,24.23
2019-04-30T13:51:59.830Z,27.13
2019-04-30T13:54:29.486Z,25.27
2019-04-30T13:56:59.154Z,25.23
2019-04-30T13:59:28.868Z,26.50
2019-04-30T14:01:58.863Z,27.33
2019-04-30T14:04:53.806Z,28.43
2019-04-30T14:07:49.985Z,27.10
2019-04-30T14:10:21.403Z,27.50
2019-04-30T14:12:54.282Z,28.27
2019-04-30T14:15:24.176Z,28.33
2019-04-30T14:17:53.994Z,26.83
2019-04-30T14:20:26.413Z,28.30
2019-04-30T14:22:57.554Z,25.50
2019-04-30T14:25:27.370Z,26.33
2019-04-30T14:27:56.976Z,26.87
2019-04-30T14:30:29.234Z,27.17
2019-04-30T14:32:59.502Z,27.10
2019-04-30T14:35:30.085Z,25.83
2019-04-30T14:38:01.149Z,29.07
2019-04-30T14:40:32.419Z,29.33
2019-04-30T14:43:16.494Z,28.63
2019-04-30T14:46:10.107Z,28.50
2019-04-30T14:48:46.419Z,28.00
2019-04-30T14:51:16.777Z,27.90
2019-04-30T14:54:11.019Z,28.37
2019-04-30T14:56:59.556Z,29.00
2019-04-30T14:59:50.776Z,27.40
2019-04-30T15:02:42.736Z,27.37
2019-04-30T15:05:12.352Z,27.03
2019-04-30T15:07:41.780Z,28.10
2019-04-30T15:10:12.324Z,28.53
2019-04-30T15:12:41.847Z,26.80
2019-04-30T15:15:11.537Z,26.77
2019-04-30T15:17:41.265Z,24.87
2019-04-30T15:20:12.221Z,25.77
2019-04-30T15:22:51.524Z,27.13
2019-04-30T15:25:20.922Z,25.93
2019-04-30T15:27:50.345Z,25.37
2019-04-30T15:30:22.001Z,28.27
2019-04-30T15:32:57.223Z,26.50
2019-04-30T15:35:26.867Z,28.23
2019-04-30T15:37:59.415Z,27.87
2019-04-30T15:40:30.540Z,28.43
2019-04-30T15:43:02.452Z,27.50
2019-04-30T15:45:32.219Z,25.27
2019-04-30T15:48:01.799Z,26.77
2019-04-30T15:50:31.386Z,28.17
2019-04-30T15:53:03.454Z,27.17
2019-04-30T15:55:32.877Z,26.40
2019-04-30T15:58:09.698Z,27.00
2019-04-30T16:00:39.416Z,28.23
2019-04-30T16:03:15.654Z,28.43
2019-04-30T16:05:48.072Z,25.33
2019-04-30T16:08:29.043Z,25.67
2019-04-30T16:11:29.466Z,27.70
2019-04-30T16:14:19.303Z,27.53
2019-04-30T16:16:57.772Z,28.60
2019-04-30T16:19:29.003Z,28.10
2019-04-30T16:22:00.232Z,27.90
2019-04-30T16:24:29.761Z,28.17
2019-04-30T16:26:59.551Z,28.43
2019-04-30T16:29:28.881Z,29.50
2019-04-30T16:31:59.407Z,28.80
2019-04-30T16:34:30.474Z,28.03
2019-04-30T16:37:00.131Z,30.57
2019-04-30T16:39:29.677Z,29.00
2019-04-30T16:42:00.266Z,28.93
2019-04-30T16:44:31.269Z,28.77
2019-04-30T16:47:13.040Z,27.17
2019-04-30T16:49:33.388Z,28.33
2019-04-30T16:52:04.797Z,27.17
2019-04-30T16:54:35.233Z,27.40
2019-04-30T16:57:06.977Z,28.93
2019-04-30T16:59:41.048Z,27.87
2019-04-30T17:02:13.095Z,26.87
2019-04-30T17:04:50.757Z,29.67
2019-04-30T17:07:41.640Z,29.40
2019-04-30T17:10:23.351Z,31.07
2019-04-30T17:13:10.945Z,30.00
2019-04-30T17:19:19.096Z,31.77
2019-04-30T17:21:56.543Z,29.97
2019-04-30T17:24:27.284Z,30.17
2019-04-30T17:26:59.287Z,32.37
2019-04-30T17:29:37.902Z,32.13
2019-04-30T17:32:16.357Z,30.83
2019-04-30T17:34:58.768Z,31.57
2019-04-30T17:37:31.582Z,33.97
2019-04-30T17:40:03.763Z,31.33
2019-04-30T17:42:33.405Z,31.73
2019-04-30T17:45:04.957Z,32.70
2019-04-30T17:47:34.714Z,35.60
2019-04-30T17:50:05.710Z,34.43
2019-04-30T17:52:36.368Z,35.17
2019-04-30T17:55:09.717Z,34.93
2019-04-30T17:57:40.542Z,35.53
2019-04-30T18:00:18.701Z,36.30
2019-04-30T18:02:44.360Z,35.03
2019-04-30T18:05:15.407Z,35.57
2019-04-30T18:07:44.929Z,32.40
2019-04-30T18:10:16.170Z,35.23
2019-04-30T18:12:47.286Z,32.87
2019-04-30T18:15:22.194Z,34.57
2019-04-30T18:18:01.388Z,31.27
2019-04-30T18:20:40.727Z,33.77
2019-04-30T18:23:42.881Z,30.50
2019-04-30T18:26:14.412Z,32.13
2019-04-30T18:28:44.098Z,32.87
2019-04-30T18:31:13.642Z,31.40
2019-04-30T18:33:43.333Z,30.80
2019-04-30T18:36:12.860Z,30.83
2019-04-30T18:38:42.363Z,30.67
2019-04-30T18:41:14.836Z,30.23
2019-04-30T18:43:45.357Z,30.80
2019-04-30T18:46:15.061Z,30.23
2019-04-30T18:48:44.561Z,31.73
2019-04-30T18:51:30.310Z,31.63
2019-04-30T18:53:49.389Z,30.63
2019-04-30T18:56:19.250Z,31.07
2019-04-30T18:58:48.787Z,29.87
2019-04-30T19:01:19.324Z,28.80
2019-04-30T19:03:50.030Z,30.40
2019-04-30T19:06:26.110Z,28.23
2019-04-30T19:09:15.518Z,31.77
2019-04-30T19:11:50.872Z,31.17
2019-04-30T19:14:31.128Z,31.27
2019-04-30T19:17:20.775Z,31.53
2019-04-30T19:20:01.752Z,32.50
2019-04-30T19:22:32.474Z,31.77
2019-04-30T19:25:04.464Z,32.43
2019-04-30T19:27:35.551Z,33.07
2019-04-30T19:30:06.255Z,33.27
2019-04-30T19:32:39.059Z,33.90
2019-04-30T19:35:09.743Z,35.27
2019-04-30T19:37:40.384Z,31.63
2019-04-30T19:40:10.217Z,34.17
2019-04-30T19:42:39.859Z,32.70
2019-04-30T19:45:12.426Z,29.77
2019-04-30T19:47:42.145Z,33.87
2019-04-30T19:50:14.200Z,32.20
2019-04-30T19:52:43.988Z,34.57
2019-04-30T19:55:14.841Z,34.23
2019-04-30T19:57:45.785Z,33.03
2019-04-30T20:00:15.622Z,30.33
2019-04-30T20:02:48.696Z,31.83
2019-04-30T20:05:19.425Z,30.23
2019-04-30T20:07:49.414Z,28.60
2019-04-30T20:10:19.581Z,31.67
2019-04-30T20:12:49.697Z,33.57
2019-04-30T20:15:22.194Z,32.20
2019-04-30T20:17:51.805Z,34.27
2019-04-30T20:20:22.433Z,32.70
2019-04-30T20:22:53.181Z,33.00
2019-04-30T20:25:22.727Z,32.67
2019-04-30T20:27:52.828Z,33.73
2019-04-30T20:30:23.305Z,37.07
2019-04-30T20:32:54.024Z,34.50
2019-04-30T20:35:24.006Z,32.40
2019-04-30T20:38:12.825Z,36.13
2019-04-30T20:40:57.753Z,38.73
2019-04-30T20:43:18.534Z,35.73
2019-04-30T20:45:49.461Z,36.47
2019-04-30T20:48:22.183Z,36.67
2019-04-30T20:50:54.834Z,35.90
2019-04-30T20:53:24.447Z,36.57
2019-04-30T20:55:55.225Z,41.63
2019-04-30T20:58:26.636Z,42.80
2019-04-30T21:01:03.379Z,41.50
2019-04-30T21:03:29.586Z,41.93
2019-04-30T21:06:00.587Z,47.67
2019-04-30T21:08:32.372Z,48.57
2019-04-30T21:11:03.190Z,47.63
2019-04-30T21:13:32.815Z,45.23
2019-04-30T21:16:02.401Z,46.63
2019-04-30T21:18:32.625Z,47.13
2019-04-30T21:21:02.122Z,46.43
2019-04-30T21:23:32.137Z,42.40
2019-04-30T21:26:04.404Z,43.80
2019-04-30T21:28:34.043Z,37.97
2019-04-30T21:31:22.361Z,39.37
2019-04-30T21:33:58.258Z,45.17
2019-04-30T21:36:29.080Z,51.67
2019-04-30T21:38:59.687Z,57.77
2019-04-30T21:41:29.779Z,62.73
2019-04-30T21:44:01.594Z,55.63
2019-04-30T21:46:31.077Z,60.17
2019-04-30T21:49:01.690Z,58.47
2019-04-30T21:51:31.397Z,58.40
2019-04-30T21:54:01.046Z,54.50
2019-04-30T21:56:31.687Z,55.80
2019-04-30T21:59:01.274Z,57.80
2019-04-30T22:01:32.653Z,51.47
2019-04-30T22:04:02.163Z,51.60
2019-04-30T22:06:32.841Z,52.83
2019-04-30T22:09:03.594Z,50.83
2019-04-30T22:11:33.233Z,53.80
2019-04-30T22:14:05.205Z,50.03
2019-04-30T22:16:36.671Z,53.23
2019-04-30T22:19:08.124Z,52.50
2019-04-30T22:21:40.431Z,52.30
2019-04-30T22:24:09.894Z,49.83
2019-04-30T22:26:40.035Z,48.33
2019-04-30T22:29:09.747Z,46.40
2019-04-30T22:31:39.686Z,46.77
2019-04-30T22:34:09.317Z,43.10
2019-04-30T22:36:44.103Z,44.17
2019-04-30T22:39:33.416Z,45.00
2019-04-30T22:42:30.132Z,41.90
2019-04-30T22:45:01.809Z,45.13
2019-04-30T22:47:34.029Z,43.17
2019-04-30T22:50:05.200Z,43.08
2019-04-30T22:52:36.509Z,43.33
2019-04-30T22:55:07.497Z,41.30
2019-04-30T22:57:37.188Z,40.00
2019-04-30T23:00:10.133Z,36.80
2019-04-30T23:02:47.872Z,36.90
2019-04-30T23:05:18.689Z,37.83
2019-04-30T23:07:49.996Z,37.93
2019-04-30T23:10:23.797Z,38.67
2019-04-30T23:12:54.415Z,34.33
2019-04-30T23:15:24.534Z,35.27
2019-04-30T23:17:54.156Z,33.70
2019-04-30T23:20:23.766Z,34.77
2019-04-30T23:22:54.368Z,34.33
2019-04-30T23:25:25.051Z,34.13
2019-04-30T23:27:55.106Z,35.70
2019-04-30T23:30:25.640Z,35.93
2019-04-30T23:32:56.480Z,41.10
2019-04-30T23:35:28.446Z,38.50
2019-04-30T23:37:58.248Z,38.33
2019-04-30T23:40:35.184Z,37.90
2019-04-30T23:43:04.840Z,35.27
2019-04-30T23:45:34.399Z,35.57
2019-04-30T23:48:03.951Z,31.43
2019-04-30T23:50:34.509Z,34.90
2019-04-30T23:53:04.029Z,35.90
2019-04-30T23:55:34.854Z,35.05
2019-04-30T23:58:04.662Z,35.17
